Hlavní strana
METAR-TAF:

METAR-TAF

Letiště :

Lleida-Alguaire

Lleida, Španělsko

zeměpisná šířka: 41-43-40N, zeměpisná délka: 000-32-09E, výška: 350 m

Aktuální stav počasí

Zpráva byla vytvořena před 40 minutami, v 09:30 UTC
Východoseverovýchodní vítr 10 kt, proměnlivý mezi severoseverovýchodním a východním
Teplota 12°C
Vlhkost vzduchu 76%
Tlak 1023 hPa
Viditelnost 10 km a více
Žádná oblačnost pod 1500 m, nevyskytují se cumulonimby.

METAR: LEDA 060930Z AUTO 06010KT 030V090 CAVOK 12/08 Q1023

Čas: 12:10 (10:10 UTC)


TAF: chybějící

Stav a předpovědi počasí z více než 4 000 letišť (zprávy METAR a TAF).

Červené a žluté tečky na mapě představují dostupné meteorologické stanice.

Když kurzor umístíte na tečku, zobrazí se název stanice.

Pak kliknutím zobrazíte stav a předpověď počasí.

Chcete-li změnit mapu, kliknutím na zelené tlačítko se znaménkem +mapu přiblížíte, kliknutím na zelené tlačítko se znaménkem – mapu oddálíte a kliknutím na zelené šipky přejdete na sousední mapy.


METAR-TAF: